createdAt,value
2022-11-03T00:01:03.524Z,101389.75
2022-11-03T00:06:07.687Z,101388.06
2022-11-03T00:10:57.133Z,101376.81
2022-11-03T00:15:50.779Z,101369.97
2022-11-03T00:20:40.250Z,101358.75
2022-11-03T00:25:32.301Z,101350.16
2022-11-03T00:30:21.710Z,101357.97
2022-11-03T00:35:11.275Z,101351.91
2022-11-03T00:40:00.977Z,101344.16
2022-11-03T00:44:53.139Z,101345.88
2022-11-03T00:49:42.608Z,101341.56
2022-11-03T00:54:32.030Z,101340.72
2022-11-03T00:59:21.635Z,101332.09
2022-11-03T01:04:26.481Z,101322.63
2022-11-03T01:09:17.356Z,101309.69
2022-11-03T01:14:07.378Z,101301.06
2022-11-03T01:18:57.412Z,101293.28
2022-11-03T01:23:49.454Z,101299.31
2022-11-03T01:28:39.352Z,101287.22
2022-11-03T01:33:29.110Z,101281.19
2022-11-03T01:38:18.627Z,101271.69
2022-11-03T01:43:24.150Z,101268.19
2022-11-03T01:48:14.808Z,101273.38
2022-11-03T01:53:04.833Z,101258.69
2022-11-03T01:57:57.110Z,101258.66
2022-11-03T02:02:49.529Z,101248.31
2022-11-03T02:07:44.074Z,101237.09
2022-11-03T02:12:33.559Z,101233.59
2022-11-03T02:17:24.285Z,101219.75
2022-11-03T02:22:28.940Z,101223.22
2022-11-03T02:27:21.074Z,101209.38
2022-11-03T02:32:16.748Z,101208.53
2022-11-03T02:37:09.324Z,101193.84
2022-11-03T02:41:59.940Z,101183.47
2022-11-03T02:46:56.361Z,101167.91
2022-11-03T02:51:45.804Z,101161.91
2022-11-03T02:56:38.289Z,101145.50
2022-11-03T03:01:30.726Z,101139.47
2022-11-03T03:06:25.528Z,101136.91
2022-11-03T03:11:16.200Z,101142.91
2022-11-03T03:16:09.644Z,101138.63
2022-11-03T03:21:03.476Z,101131.75
2022-11-03T03:25:58.418Z,101120.53
2022-11-03T03:30:49.639Z,101112.78
2022-11-03T03:35:41.522Z,101116.25
2022-11-03T03:40:34.166Z,101108.50
2022-11-03T03:45:27.706Z,101105.94
2022-11-03T03:50:17.338Z,101099.94
2022-11-03T03:55:10.578Z,101091.31
2022-11-03T04:00:00.485Z,101089.59
2022-11-03T04:04:52.675Z,101091.31
2022-11-03T04:09:42.372Z,101092.16
2022-11-03T04:14:44.288Z,101081.81
2022-11-03T04:19:46.125Z,101071.47
2022-11-03T04:24:38.224Z,101067.13
2022-11-03T04:29:27.863Z,101059.38
2022-11-03T04:34:17.337Z,101055.09
2022-11-03T04:39:16.007Z,101052.53
2022-11-03T04:44:14.258Z,101035.25
2022-11-03T04:49:04.633Z,101041.34
2022-11-03T04:53:56.377Z,101028.44
2022-11-03T04:58:47.897Z,101019.00
2022-11-03T05:03:42.266Z,101016.41
2022-11-03T05:08:31.713Z,101000.91
2022-11-03T05:13:23.944Z,100999.16
2022-11-03T05:18:18.383Z,100998.31
2022-11-03T05:23:13.730Z,100981.94
2022-11-03T05:28:03.363Z,100980.19
2022-11-03T05:32:53.008Z,100964.66
2022-11-03T05:37:44.733Z,100969.00
2022-11-03T05:42:42.544Z,100961.22
2022-11-03T05:47:35.367Z,100962.09
2022-11-03T05:52:26.933Z,100940.50
2022-11-03T05:57:16.992Z,100938.78
2022-11-03T06:02:19.188Z,100938.78
2022-11-03T06:07:13.560Z,100933.59
2022-11-03T06:12:07.113Z,100936.19
2022-11-03T06:16:57.811Z,100920.66
2022-11-03T06:21:50.056Z,100915.50
2022-11-03T06:26:39.842Z,100912.03
2022-11-03T06:31:30.199Z,100907.75
2022-11-03T06:36:22.209Z,100906.88
2022-11-03T06:41:21.090Z,100908.63
2022-11-03T06:46:15.942Z,100899.97
2022-11-03T06:51:06.527Z,100902.56
2022-11-03T06:55:56.523Z,100898.25
2022-11-03T07:00:51.336Z,100885.31
2022-11-03T07:05:42.001Z,100893.06
2022-11-03T07:10:32.453Z,100892.22
2022-11-03T07:15:30.406Z,100890.50
2022-11-03T07:20:23.014Z,100885.31
2022-11-03T07:25:16.643Z,100885.31
2022-11-03T07:30:13.897Z,100883.59
2022-11-03T07:35:07.002Z,100881.03
2022-11-03T07:40:00.570Z,100881.88
2022-11-03T07:44:50.822Z,100886.25
2022-11-03T07:49:40.542Z,100874.13
2022-11-03T07:54:31.942Z,100881.88
2022-11-03T07:59:25.536Z,100860.31
2022-11-03T08:04:16.497Z,100843.03
2022-11-03T08:09:07.162Z,100840.41
2022-11-03T08:13:56.845Z,100829.16
2022-11-03T08:18:49.361Z,100826.59
2022-11-03T08:23:43.166Z,100823.13
2022-11-03T08:28:36.020Z,100810.16
2022-11-03T08:33:25.531Z,100797.19
2022-11-03T08:38:17.630Z,100785.06
2022-11-03T08:43:07.063Z,100769.50
2022-11-03T08:47:56.545Z,100767.75
2022-11-03T08:52:46.351Z,100743.53
2022-11-03T08:57:38.330Z,100736.59
2022-11-03T09:02:27.765Z,100721.03
2022-11-03T09:07:17.965Z,100714.94
2022-11-03T09:12:08.069Z,100710.59
2022-11-03T09:17:00.312Z,100692.41
2022-11-03T09:21:50.181Z,100679.38
2022-11-03T09:26:40.192Z,100662.03
2022-11-03T09:31:29.600Z,100656.00
2022-11-03T09:36:21.712Z,100653.38
2022-11-03T09:41:26.685Z,100643.84
2022-11-03T09:46:27.310Z,100640.34
2022-11-03T09:51:21.135Z,100623.94
2022-11-03T09:56:14.584Z,100611.84
2022-11-03T10:01:04.300Z,100609.19
2022-11-03T10:05:53.749Z,100600.53
2022-11-03T10:10:43.332Z,100591.81
2022-11-03T10:15:35.455Z,100583.16
2022-11-03T10:20:27.400Z,100576.19
2022-11-03T10:25:33.331Z,100577.94
2022-11-03T10:30:22.847Z,100570.13
2022-11-03T10:35:34.588Z,100565.78
2022-11-03T10:40:53.013Z,100556.25
2022-11-03T10:45:42.702Z,100533.72
2022-11-03T10:50:34.838Z,100527.56
2022-11-03T10:55:25.898Z,100527.47
2022-11-03T11:00:16.673Z,100517.84
2022-11-03T11:05:12.730Z,100512.56
2022-11-03T11:10:10.162Z,100501.25
2022-11-03T11:15:09.838Z,100484.69
2022-11-03T11:20:18.333Z,100482.84
2022-11-03T11:25:12.745Z,100466.28
2022-11-03T11:30:04.984Z,100457.53
2022-11-03T11:34:54.668Z,100449.63
2022-11-03T11:39:47.186Z,100420.84
2022-11-03T11:44:49.999Z,100422.31
2022-11-03T11:49:39.575Z,100411.69
2022-11-03T11:54:29.011Z,100396.78
2022-11-03T11:59:24.261Z,100389.81
2022-11-03T12:04:24.207Z,100373.38
2022-11-03T12:09:18.877Z,100369.91
2022-11-03T12:14:08.259Z,100355.19
2022-11-03T12:18:58.949Z,100354.16
2022-11-03T12:23:51.211Z,100342.50
2022-11-03T12:28:40.616Z,100330.94
2022-11-03T12:33:30.645Z,100312.44
2022-11-03T12:38:20.090Z,100311.22
2022-11-03T12:43:12.051Z,100309.16
2022-11-03T12:48:04.941Z,100275.84
2022-11-03T12:52:54.377Z,100281.97
2022-11-03T12:57:45.831Z,100262.13
2022-11-03T13:02:38.043Z,100251.00
2022-11-03T13:07:31.957Z,100237.09
2022-11-03T13:12:38.294Z,100222.41
2022-11-03T13:17:35.856Z,100210.13
2022-11-03T13:22:39.305Z,100194.31
2022-11-03T13:27:28.696Z,100180.44
2022-11-03T13:32:18.051Z,100184.00
2022-11-03T13:37:07.539Z,100200.72
2022-11-03T13:41:59.613Z,100175.00
2022-11-03T13:46:49.346Z,100173.56
2022-11-03T13:51:39.156Z,100169.44
2022-11-03T13:56:29.137Z,100165.38
2022-11-03T14:01:21.648Z,100158.59
2022-11-03T14:06:11.410Z,100151.88
2022-11-03T14:11:20.838Z,100132.91
2022-11-03T14:16:10.633Z,100130.41
2022-11-03T14:21:03.154Z,100133.00
2022-11-03T14:26:01.031Z,100128.69
2022-11-03T14:31:03.938Z,100112.28
2022-11-03T14:35:53.318Z,100104.53
2022-11-03T14:40:57.779Z,100104.63
2022-11-03T14:45:47.356Z,100025.03
2022-11-03T14:50:37.207Z,100059.28
2022-11-03T14:55:26.778Z,100050.94
2022-11-03T15:00:20.271Z,100056.50
2022-11-03T15:05:29.870Z,100054.19
2022-11-03T15:10:19.320Z,100050.94
2022-11-03T15:15:11.525Z,100046.75
2022-11-03T15:20:04.007Z,100039.19
2022-11-03T15:30:02.972Z,100010.03
2022-11-03T15:34:55.328Z,100011.09
2022-11-03T15:39:50.081Z,99997.44
2022-11-03T15:44:39.469Z,99985.53
2022-11-03T15:49:28.884Z,99977.03
2022-11-03T15:54:21.318Z,99973.66
2022-11-03T15:59:13.388Z,99975.47
2022-11-03T16:04:05.773Z,99978.16
2022-11-03T16:08:55.146Z,99973.84
2022-11-03T16:13:44.507Z,99977.34
2022-11-03T16:18:43.379Z,99992.16
2022-11-03T16:23:32.729Z,99985.34
2022-11-03T16:28:22.138Z,99974.28
2022-11-03T16:33:22.055Z,99979.59
2022-11-03T16:38:15.476Z,99970.22
2022-11-03T16:43:05.163Z,99959.13
2022-11-03T16:47:54.912Z,99945.41
2022-11-03T16:52:45.528Z,99948.94
2022-11-03T16:57:37.716Z,99950.81
2022-11-03T17:02:28.142Z,99943.19
2022-11-03T17:07:17.718Z,99943.28
2022-11-03T17:12:07.319Z,99947.69
2022-11-03T17:16:59.587Z,99950.28
2022-11-03T17:21:49.072Z,99952.97
2022-11-03T17:26:43.318Z,99942.66
2022-11-03T17:31:33.890Z,99927.19
2022-11-03T17:36:26.158Z,99918.59
2022-11-03T17:41:18.082Z,99908.28
2022-11-03T17:46:09.066Z,99910.91
2022-11-03T17:50:58.956Z,99906.66
2022-11-03T17:56:08.976Z,99910.97
2022-11-03T18:01:01.702Z,99912.72
2022-11-03T18:05:51.147Z,99901.50
2022-11-03T18:10:42.843Z,99893.75
2022-11-03T18:15:36.817Z,99892.06
2022-11-03T18:20:29.273Z,99890.38
2022-11-03T18:25:19.543Z,99885.22
2022-11-03T18:30:09.505Z,99885.22
2022-11-03T18:35:01.808Z,99891.28
2022-11-03T18:39:51.320Z,99894.72
2022-11-03T18:44:41.405Z,99887.81
2022-11-03T18:49:33.163Z,99888.69
2022-11-03T18:54:27.960Z,99888.69
2022-11-03T18:59:21.124Z,99875.78
2022-11-03T19:04:14.921Z,99868.03
2022-11-03T19:09:04.352Z,99852.53
2022-11-03T19:13:56.901Z,99855.94
2022-11-03T19:18:47.354Z,99846.50
2022-11-03T19:23:36.710Z,99840.47
2022-11-03T19:28:26.400Z,99835.25
2022-11-03T19:33:21.504Z,99841.31
2022-11-03T19:38:14.024Z,99836.13
2022-11-03T19:43:04.749Z,99837.81
2022-11-03T19:48:25.417Z,99843.81
2022-11-03T19:53:10.269Z,99850.75
2022-11-03T19:58:03.551Z,99845.59
2022-11-03T20:02:52.891Z,99850.81
2022-11-03T20:07:43.194Z,99863.84
2022-11-03T20:12:36.214Z,99872.47
2022-11-03T20:17:25.871Z,99889.81
2022-11-03T20:22:17.365Z,99882.09
2022-11-03T20:27:06.712Z,99892.44
2022-11-03T20:31:58.755Z,99898.50
2022-11-03T20:36:48.463Z,99892.50
2022-11-03T20:41:38.130Z,99907.13
2022-11-03T20:46:29.019Z,99914.03
2022-11-03T20:51:22.585Z,99930.44
2022-11-03T20:56:19.674Z,99943.50
2022-11-03T21:01:13.589Z,99941.03
2022-11-03T21:06:04.119Z,99947.97
2022-11-03T21:11:16.698Z,99945.47
2022-11-03T21:16:24.880Z,99944.63
2022-11-03T21:21:19.619Z,99977.50
2022-11-03T21:26:14.822Z,100000.75
2022-11-03T21:31:04.668Z,100011.94
2022-11-03T21:35:55.195Z,100015.44
2022-11-03T21:40:46.185Z,100010.25
2022-11-03T21:45:38.547Z,100006.78
2022-11-03T21:50:27.964Z,100015.44
2022-11-03T21:55:17.354Z,100016.28
2022-11-03T22:00:07.505Z,100021.47
2022-11-03T22:04:59.534Z,100024.03
2022-11-03T22:09:48.900Z,100043.88
2022-11-03T22:14:50.535Z,100036.97
2022-11-03T22:19:52.376Z,100047.31
2022-11-03T22:24:57.147Z,100047.38
2022-11-03T22:29:58.994Z,100057.72
2022-11-03T22:35:00.890Z,100066.38
2022-11-03T22:40:05.285Z,100070.69
2022-11-03T22:45:07.121Z,100065.53
2022-11-03T22:49:56.580Z,100070.72
2022-11-03T22:54:46.026Z,100075.94
2022-11-03T22:59:37.965Z,100079.34
2022-11-03T23:04:27.365Z,100096.63
2022-11-03T23:09:17.668Z,100105.28
2022-11-03T23:14:08.638Z,100103.63
2022-11-03T23:19:13.776Z,100124.25
2022-11-03T23:24:16.270Z,100130.28
2022-11-03T23:29:06.473Z,100128.59
2022-11-03T23:33:56.221Z,100142.38
2022-11-03T23:38:48.819Z,100136.31
2022-11-03T23:43:38.938Z,100125.97
2022-11-03T23:48:41.122Z,100142.31
2022-11-03T23:53:30.735Z,100151.81
2022-11-03T23:58:23.090Z,100153.59
